Погода Сириамна 2 недели

Янгон, Мьянма

28 февраля-12 марта
  • 28февраля
    Сегодня
    +23°
    +37°
    Практически безоблачно
    ВремяПогодаТемператураВлажностьДавлениеВетер, м/сВероятность осадков
    00:30Ясно и безоблачно+28°C76 %757 мм2.2 м/с2 %
    03:30Ясно и безоблачно+25°C71 %755 мм1.6 м/с2 %
    06:30Ясно и безоблачно+25°C74 %756 мм0.0 м/с2 %
    09:30Облачно с прояснениями+29°C46 %758 мм0.0 м/с2 %
    12:30Практически безоблачно+35°C28 %756 мм1.0 м/с2 %
    15:30Ясно и безоблачно+37°C27 %754 мм2.6 м/с2 %
    18:30Ясно и безоблачно+32°C44 %754 мм2.5 м/с2 %
    21:30Ясно и безоблачно+29°C54 %756 мм1.4 м/с2 %
  • 29февраля
    Четверг
    +23°
    +38°
    Ясно и безоблачно
    ВремяПогодаТемператураВлажностьДавлениеВетер, м/сВероятность осадков
    00:30Ясно и безоблачно+26°C57 %757 мм2.0 м/с2 %
    03:30Ясно и безоблачно+24°C68 %756 мм2.4 м/с2 %
    06:30Ясно и безоблачно+23°C75 %757 мм0.2 м/с2 %
    09:30Ясно и безоблачно+31°C37 %758 мм0.0 м/с2 %
    12:30Ясно и безоблачно+36°C22 %757 мм0.9 м/с2 %
    15:30Ясно и безоблачно+37°C20 %754 мм1.1 м/с2 %
    18:30Ясно и безоблачно+32°C40 %755 мм3.2 м/с2 %
    21:30Ясно и безоблачно+28°C60 %757 мм1.7 м/с2 %
  • 01марта
    Пятница
    +22°
    +38°
    Небольшая облачность
    ВремяПогодаТемператураВлажностьДавлениеВетер, м/сВероятность осадков
    00:30Ясно и безоблачно+26°C69 %757 мм2.0 м/с2 %
    03:30Ясно и безоблачно+24°C76 %756 мм2.3 м/с2 %
    06:30Ясно и безоблачно+23°C75 %757 мм0.0 м/с2 %
    09:30Ясно и безоблачно+30°C47 %759 мм0.0 м/с2 %
    12:30Небольшая облачность+36°C31 %757 мм0.0 м/с2 %
    15:30Практически безоблачно+37°C26 %755 мм2.1 м/с2 %
    18:30Ясно и безоблачно+32°C49 %755 мм2.5 м/с2 %
    21:30Ясно и безоблачно+28°C62 %757 мм1.7 м/с2 %
  • 02марта
    Суббота
    +20°
    +37°
    Ясно и безоблачно
    ВремяПогодаТемператураВлажностьДавлениеВетер, м/сВероятность осадков
    00:30Ясно и безоблачно+25°C65 %756 мм1.9 м/с2 %
    03:30Ясно и безоблачно+23°C78 %756 мм2.1 м/с2 %
    06:30Ясно и безоблачно+22°C88 %757 мм0.0 м/с2 %
    09:30Ясно и безоблачно+30°C49 %758 мм0.2 м/с2 %
    12:30Ясно и безоблачно+35°C29 %757 мм1.6 м/с2 %
    15:30Ясно и безоблачно+37°C26 %755 мм1.9 м/с2 %
    18:30Ясно и безоблачно+31°C43 %755 мм2.5 м/с2 %
    21:30Ясно и безоблачно+28°C68 %757 мм1.1 м/с2 %
  • 03марта
    Воскресенье
    +21°
    +38°
    Ясно и безоблачно
    ВремяПогодаТемператураВлажностьДавлениеВетер, м/сВероятность осадков
    00:30Ясно и безоблачно+25°C61 %756 мм1.9 м/с2 %
    03:30Ясно и безоблачно+23°C75 %756 мм1.7 м/с2 %
    06:30Ясно и безоблачно+22°C80 %757 мм0.0 м/с2 %
    09:30Ясно и безоблачно+29°C47 %759 мм0.4 м/с2 %
    12:30Ясно и безоблачно+35°C21 %757 мм1.9 м/с2 %
    15:30Ясно и безоблачно+37°C19 %754 мм3.4 м/с2 %
    18:30Ясно и безоблачно+31°C37 %755 мм3.6 м/с2 %
    21:30Ясно и безоблачно+27°C60 %757 мм2.0 м/с2 %
Мы используем cookies
Соглашаюсь